Time;durP1;ratioP1;P1;durP2;ratioP2;P2;SDS_P1;SDS_P2;PMS_P1;PMS_P2;Temp;Humidity;BMP_temperature;BMP_pressure;BME280_temperature;BME280_humidity;BME280_pressure;Samples;Min_cycle;Max_cycle;Signal;HPM_P1;HPM_P2
2022/08/27 00:00:04;;;;;;;8.18;2.30;;;13.60;99.90;;;;;;5092016;28;20415;-73
2022/08/27 00:02:34;;;;;;;6.22;2.35;;;13.60;99.90;;;;;;5071104;28;20397;-70
2022/08/27 00:05:00;;;;;;;5.97;2.38;;;13.50;99.90;;;;;;5052113;28;20048;-69
2022/08/27 00:07:27;;;;;;;5.03;2.50;;;13.50;99.90;;;;;;5052848;28;20053;-73
2022/08/27 00:09:52;;;;;;;6.78;2.10;;;13.50;99.90;;;;;;5034141;28;20778;-71
2022/08/27 00:12:18;;;;;;;9.15;2.65;;;13.60;99.90;;;;;;5051939;28;20048;-71
2022/08/27 00:14:44;;;;;;;5.63;2.40;;;13.40;99.90;;;;;;5051745;28;20045;-75
2022/08/27 00:17:10;;;;;;;10.02;2.65;;;13.30;99.90;;;;;;5052789;28;20040;-71
2022/08/27 00:19:36;;;;;;;6.40;2.30;;;13.30;99.90;;;;;;5051773;28;20040;-73
2022/08/27 00:22:04;;;;;;;5.35;2.05;;;13.20;99.90;;;;;;5051913;28;20408;-70
2022/08/27 00:24:30;;;;;;;8.35;2.65;;;13.20;99.90;;;;;;5051804;28;20041;-70
2022/08/27 00:26:56;;;;;;;6.05;2.70;;;13.20;99.90;;;;;;5033624;28;20044;-70
2022/08/27 00:29:22;;;;;;;7.72;2.90;;;13.20;99.90;;;;;;5052601;28;20110;-71
2022/08/27 00:31:48;;;;;;;8.52;2.90;;;13.20;99.90;;;;;;5051161;28;20473;-71
2022/08/27 00:34:14;;;;;;;6.72;2.88;;;13.20;99.90;;;;;;5051364;28;20086;-72
2022/08/27 00:36:40;;;;;;;7.97;2.90;;;13.20;99.90;;;;;;5051844;28;20043;-74
2022/08/27 00:39:05;;;;;;;4.82;2.05;;;13.10;99.90;;;;;;5052497;28;20033;-76
2022/08/27 00:41:32;;;;;;;5.10;1.88;;;13.10;99.90;;;;;;5033142;28;20063;-76
2022/08/27 00:44:00;;;;;;;3.97;1.88;;;13.00;99.90;;;;;;5050848;28;20041;-70
2022/08/27 00:46:41;;;;;;;7.78;1.75;;;12.80;99.90;;;;;;5051171;28;20495;-71
2022/08/27 00:49:25;;;;;;;4.13;2.00;;;12.70;99.90;;;;;;5052102;28;20084;-74
2022/08/27 00:52:02;;;;;;;4.28;2.65;;;12.70;99.90;;;;;;5051628;28;20118;-71
2022/08/27 00:54:28;;;;;;;4.90;2.40;;;12.70;99.90;;;;;;5033490;28;20519;-75
2022/08/27 00:56:56;;;;;;;6.13;2.60;;;12.70;99.90;;;;;;5051215;28;20128;-71
2022/08/27 00:59:24;;;;;;;6.70;2.58;;;12.60;99.90;;;;;;5052327;28;20070;-74
2022/08/27 01:04:37;;;;;;;7.10;2.65;;;12.60;99.90;;;;;;5050959;28;20128;-70
2022/08/27 01:07:04;;;;;;;7.93;2.60;;;12.60;99.90;;;;;;5051136;28;20451;-71
2022/08/27 01:09:30;;;;;;;4.72;2.35;;;12.60;99.90;;;;;;5050998;28;20044;-70
2022/08/27 01:11:57;;;;;;;6.97;2.53;;;12.50;99.90;;;;;;5052065;28;20060;-71
2022/08/27 01:14:24;;;;;;;4.75;2.75;;;12.50;99.90;;;;;;5050964;28;20045;-71
2022/08/27 01:16:53;;;;;;;4.43;2.47;;;12.50;99.90;;;;;;5033988;28;20048;-70
2022/08/27 01:19:36;;;;;;;7.70;2.80;;;12.40;99.90;;;;;;5050458;28;20044;-71
2022/08/27 01:22:18;;;;;;;5.15;2.83;;;12.40;99.90;;;;;;5050579;28;20060;-71
2022/08/27 01:24:47;;;;;;;5.75;2.65;;;12.60;99.90;;;;;;5032563;28;20045;-73
2022/08/27 01:27:17;;;;;;;6.03;3.00;;;12.40;99.90;;;;;;5050393;28;20492;-70
2022/08/27 01:29:44;;;;;;;8.98;3.05;;;12.40;99.90;;;;;;5033684;28;20044;-72
2022/08/27 01:32:18;;;;;;;5.32;3.08;;;12.50;99.90;;;;;;5050563;28;20049;-71
2022/08/27 01:34:45;;;;;;;8.68;3.55;;;12.40;99.90;;;;;;5050174;28;20060;-76
2022/08/27 01:37:12;;;;;;;6.53;4.15;;;12.40;99.90;;;;;;5050323;28;20041;-71
2022/08/27 01:39:40;;;;;;;9.55;3.40;;;12.40;99.90;;;;;;5051490;28;20049;-73
2022/08/27 01:42:19;;;;;;;9.15;4.00;;;12.60;99.90;;;;;;5032359;28;20124;-70
2022/08/27 01:44:54;;;;;;;8.98;4.18;;;12.50;99.90;;;;;;5032610;28;20055;-70
2022/08/27 01:47:22;;;;;;;9.75;4.15;;;12.60;99.90;;;;;;5050055;28;20495;-71
2022/08/27 01:49:48;;;;;;;13.18;4.57;;;12.60;99.90;;;;;;5051546;28;20439;-72
2022/08/27 01:52:17;;;;;;;6.43;4.50;;;12.70;99.90;;;;;;5049855;28;20473;-76
2022/08/27 01:54:42;;;;;;;9.82;3.60;;;12.80;99.90;;;;;;5050166;28;20056;-76
2022/08/27 01:57:08;;;;;;;8.60;3.83;;;12.80;99.90;;;;;;5032680;28;20044;-71
2022/08/27 01:59:34;;;;;;;6.93;3.67;;;12.80;99.90;;;;;;5051152;28;20617;-70
2022/08/27 02:02:01;;;;;;;6.63;3.88;;;12.80;99.90;;;;;;5076421;28;20067;-75
2022/08/27 02:04:28;;;;;;;10.00;3.80;;;12.90;99.90;;;;;;5060282;28;20055;-73
2022/08/27 02:06:54;;;;;;;10.80;3.72;;;12.90;99.90;;;;;;5065538;28;20044;-69
2022/08/27 02:09:20;;;;;;;7.43;4.05;;;12.90;99.90;;;;;;5069843;28;20050;-70
2022/08/27 02:11:45;;;;;;;6.53;3.30;;;12.90;99.90;;;;;;5051756;28;20048;-71
2022/08/27 02:14:12;;;;;;;9.85;4.07;;;13.00;99.90;;;;;;5068114;28;20509;-76
2022/08/27 02:16:38;;;;;;;5.95;3.28;;;12.90;99.90;;;;;;5068926;28;20091;-71
2022/08/27 02:19:04;;;;;;;7.68;3.85;;;12.90;99.90;;;;;;5069955;28;20063;-71
2022/08/27 02:21:29;;;;;;;7.32;4.10;;;12.90;99.90;;;;;;5051653;28;20049;-72
2022/08/27 02:23:55;;;;;;;5.88;3.13;;;12.90;99.90;;;;;;5057127;28;20040;-72
2022/08/27 02:26:21;;;;;;;9.25;3.50;;;12.90;99.90;;;;;;5050073;28;20541;-75
2022/08/27 02:28:47;;;;;;;7.63;3.20;;;12.90;99.90;;;;;;5050798;28;20053;-73
2022/08/27 02:31:13;;;;;;;9.45;3.95;;;12.90;99.90;;;;;;5052845;28;20380;-71
2022/08/27 02:33:39;;;;;;;6.95;3.50;;;12.90;99.90;;;;;;5076428;28;20450;-75
2022/08/27 02:36:05;;;;;;;8.55;3.38;;;12.90;99.90;;;;;;5075616;28;20040;-72
2022/08/27 02:38:30;;;;;;;9.27;3.53;;;12.80;99.90;;;;;;5068338;28;20047;-72
2022/08/27 02:40:56;;;;;;;12.52;3.50;;;12.80;99.90;;;;;;5089765;28;20044;-71
2022/08/27 02:43:22;;;;;;;7.60;3.45;;;12.80;99.90;;;;;;5077723;28;20052;-70
2022/08/27 02:45:48;;;;;;;7.22;3.40;;;12.80;99.90;;;;;;5077013;28;20045;-77
2022/08/27 02:48:14;;;;;;;7.20;3.42;;;12.90;99.90;;;;;;5049061;28;20458;-70
2022/08/27 02:50:39;;;;;;;10.27;3.65;;;13.00;99.90;;;;;;5049554;28;20135;-72
2022/08/27 02:53:05;;;;;;;7.10;3.20;;;12.90;99.90;;;;;;5048862;28;20059;-70
2022/08/27 02:55:32;;;;;;;6.43;3.47;;;12.90;99.90;;;;;;5049160;28;20044;-73
2022/08/27 02:57:58;;;;;;;8.82;3.63;;;12.90;99.90;;;;;;5050381;28;20032;-71
2022/08/27 03:00:26;;;;;;;7.47;3.42;;;13.00;99.90;;;;;;5063087;28;20544;-71
2022/08/27 03:02:51;;;;;;;7.15;3.70;;;12.90;99.90;;;;;;5069118;28;20147;-70
2022/08/27 03:05:18;;;;;;;6.43;3.30;;;12.90;99.90;;;;;;5053149;28;20524;-72
2022/08/27 03:07:44;;;;;;;7.72;3.38;;;13.00;99.90;;;;;;5055417;28;20043;-71
2022/08/27 03:10:13;;;;;;;9.57;3.88;;;12.90;99.90;;;;;;5072888;28;20392;-72
2022/08/27 03:12:39;;;;;;;9.27;3.63;;;12.90;99.90;;;;;;5073093;28;20044;-76
2022/08/27 03:15:08;;;;;;;7.93;3.42;;;12.90;99.90;;;;;;5054171;28;20147;-71
2022/08/27 03:20:18;;;;;;;8.00;2.95;;;13.00;99.90;;;;;;5054611;28;20052;-75
2022/08/27 03:22:44;;;;;;;7.22;3.25;;;12.80;99.90;;;;;;5054876;28;20055;-71
2022/08/27 03:25:11;;;;;;;6.60;3.42;;;12.80;99.90;;;;;;5072728;28;20049;-71
2022/08/27 03:27:36;;;;;;;9.48;3.53;;;12.80;99.90;;;;;;5071024;28;20076;-74
2022/08/27 03:30:09;;;;;;;9.23;3.25;;;12.80;99.90;;;;;;5066954;28;20555;-71
2022/08/27 03:32:35;;;;;;;6.20;3.60;;;12.80;99.90;;;;;;5093350;28;20146;-76
2022/08/27 03:35:02;;;;;;;7.75;3.40;;;12.80;99.90;;;;;;5079082;28;20052;-71
2022/08/27 03:37:28;;;;;;;9.10;3.47;;;12.80;99.90;;;;;;5072469;28;20044;-72
2022/08/27 03:39:54;;;;;;;5.25;3.40;;;12.70;99.90;;;;;;5056984;28;20048;-74
2022/08/27 03:42:20;;;;;;;7.30;3.58;;;12.70;99.90;;;;;;5052096;28;20040;-71
2022/08/27 03:44:46;;;;;;;5.88;3.67;;;12.70;99.90;;;;;;5065197;28;20054;-74
2022/08/27 03:47:12;;;;;;;6.47;3.58;;;12.90;99.90;;;;;;5067356;28;20056;-71
2022/08/27 03:49:38;;;;;;;7.32;3.75;;;12.60;99.90;;;;;;5053805;28;20496;-72
2022/08/27 03:52:04;;;;;;;7.18;3.97;;;12.70;99.90;;;;;;5052572;28;20163;-72
2022/08/27 03:54:31;;;;;;;7.60;4.10;;;12.70;99.90;;;;;;5052467;28;20067;-70
2022/08/27 03:56:57;;;;;;;7.88;3.40;;;12.70;99.90;;;;;;5051859;28;20049;-72
2022/08/27 03:59:22;;;;;;;8.18;4.20;;;12.60;99.90;;;;;;5053265;28;20063;-71
2022/08/27 04:01:48;;;;;;;8.50;3.70;;;12.60;99.90;;;;;;5052203;28;20056;-70
2022/08/27 04:04:14;;;;;;;9.50;4.25;;;12.80;99.90;;;;;;5052336;28;20067;-70
2022/08/27 04:06:40;;;;;;;6.68;3.40;;;12.50;99.90;;;;;;5040848;28;20048;-76
2022/08/27 04:09:05;;;;;;;11.57;3.50;;;12.50;99.90;;;;;;5074005;28;20074;-71
2022/08/27 04:11:33;;;;;;;9.95;3.47;;;12.50;99.90;;;;;;5062561;28;20053;-71
2022/08/27 04:14:01;;;;;;;5.78;3.03;;;12.40;99.90;;;;;;5052495;28;20049;-72
2022/08/27 04:16:27;;;;;;;5.20;3.00;;;12.40;99.90;;;;;;5084837;28;20054;-73
2022/08/27 04:18:54;;;;;;;5.95;3.00;;;12.40;99.90;;;;;;5083820;28;20048;-75
2022/08/27 04:21:21;;;;;;;6.80;2.20;;;12.30;99.90;;;;;;5051997;28;20083;-71
2022/08/27 04:23:48;;;;;;;4.63;2.60;;;12.30;99.90;;;;;;5071925;28;20056;-75
2022/08/27 04:26:14;;;;;;;5.68;2.80;;;12.30;99.90;;;;;;5071431;28;20048;-71
2022/08/27 04:28:40;;;;;;;4.90;3.17;;;12.20;99.90;;;;;;5071219;28;20162;-71
2022/08/27 04:31:06;;;;;;;7.70;3.42;;;12.10;99.90;;;;;;5070622;28;20504;-72
2022/08/27 04:33:32;;;;;;;6.10;2.92;;;12.10;99.90;;;;;;5071572;28;20867;-69
2022/08/27 04:35:59;;;;;;;5.03;2.55;;;12.10;99.90;;;;;;5071153;28;20088;-71
2022/08/27 04:38:25;;;;;;;9.27;2.85;;;12.10;99.90;;;;;;5071330;28;20048;-73
2022/08/27 04:43:35;;;;;;;4.82;2.50;;;11.90;99.90;;;;;;5056553;28;20045;-72
2022/08/27 04:46:00;;;;;;;4.95;2.95;;;11.90;99.90;;;;;;5051292;28;20052;-70
2022/08/27 04:48:26;;;;;;;7.60;3.10;;;11.90;99.90;;;;;;5051090;28;20132;-70
2022/08/27 04:50:52;;;;;;;9.15;3.95;;;11.90;99.90;;;;;;5063467;28;20052;-72
2022/08/27 04:53:18;;;;;;;5.55;3.05;;;11.80;99.90;;;;;;5069168;28;20146;-70
2022/08/27 04:55:49;;;;;;;5.78;3.60;;;11.90;99.90;;;;;;5070935;28;20139;-70
2022/08/27 04:58:16;;;;;;;7.03;3.20;;;11.90;99.90;;;;;;5070984;28;20131;-72
2022/08/27 05:00:47;;;;;;;6.25;3.33;;;11.80;99.90;;;;;;5070828;28;20048;-71
2022/08/27 05:03:14;;;;;;;7.70;3.97;;;11.90;99.90;;;;;;5069051;28;20040;-75
2022/08/27 05:05:41;;;;;;;9.48;3.28;;;11.80;99.90;;;;;;5070827;28;20036;-71
2022/08/27 05:08:09;;;;;;;4.50;2.65;;;11.80;99.90;;;;;;5070760;28;20052;-70
2022/08/27 05:10:42;;;;;;;6.50;2.97;;;11.90;99.90;;;;;;5070323;28;20102;-72
2022/08/27 05:13:09;;;;;;;6.25;2.97;;;11.90;99.90;;;;;;5070557;28;20391;-70
2022/08/27 05:15:35;;;;;;;7.80;3.10;;;12.00;99.90;;;;;;5068411;28;20116;-70
2022/08/27 05:18:01;;;;;;;8.57;3.83;;;12.00;99.90;;;;;;5057745;28;20044;-72
2022/08/27 05:20:28;;;;;;;7.00;3.28;;;12.20;99.90;;;;;;5079749;28;20055;-70
2022/08/27 05:22:54;;;;;;;5.75;3.38;;;12.10;99.90;;;;;;5090772;28;20095;-72
2022/08/27 05:25:21;;;;;;;8.10;4.07;;;12.20;99.90;;;;;;5063867;28;20044;-71
2022/08/27 05:27:47;;;;;;;11.73;3.15;;;12.20;99.90;;;;;;5050043;28;20714;-71
2022/08/27 05:30:12;;;;;;;5.97;3.40;;;12.30;99.90;;;;;;5050161;28;20037;-69
2022/08/27 05:32:38;;;;;;;12.30;4.00;;;12.40;99.90;;;;;;5032667;28;20045;-71
2022/08/27 05:35:05;;;;;;;7.28;3.67;;;12.40;99.90;;;;;;5050046;28;20049;-70
2022/08/27 05:37:32;;;;;;;12.20;4.13;;;12.50;99.90;;;;;;5050365;28;20047;-71
2022/08/27 05:39:59;;;;;;;9.02;4.78;;;12.60;99.90;;;;;;5050108;28;20079;-70
2022/08/27 05:42:25;;;;;;;9.18;4.82;;;12.60;99.90;;;;;;5050107;28;20037;-70
2022/08/27 05:44:51;;;;;;;8.05;3.97;;;13.00;99.90;;;;;;5050442;28;20051;-76
2022/08/27 05:47:17;;;;;;;8.35;4.32;;;12.80;99.90;;;;;;5070606;28;20040;-70
2022/08/27 05:49:43;;;;;;;12.40;4.57;;;13.10;99.90;;;;;;5056572;28;20499;-70
2022/08/27 05:52:12;;;;;;;10.43;4.50;;;13.00;99.90;;;;;;5049907;28;20075;-70
2022/08/27 05:54:38;;;;;;;10.70;4.80;;;13.00;99.90;;;;;;5050149;28;20067;-73
2022/08/27 05:57:04;;;;;;;6.75;3.35;;;13.10;99.90;;;;;;5033058;28;20068;-72
2022/08/27 06:02:14;;;;;;;7.80;3.65;;;13.30;99.90;;;;;;5049802;28;20052;-76
2022/08/27 06:04:40;;;;;;;7.78;3.95;;;13.40;99.90;;;;;;5031965;28;20055;-72
2022/08/27 06:07:08;;;;;;;8.68;4.22;;;13.40;99.90;;;;;;5032805;28;20496;-71
2022/08/27 06:09:33;;;;;;;5.78;3.50;;;13.50;99.90;;;;;;5049760;28;20492;-70
2022/08/27 06:12:00;;;;;;;5.82;3.22;;;13.60;99.90;;;;;;5049642;28;20060;-72
2022/08/27 06:14:26;;;;;;;9.18;3.63;;;13.60;99.90;;;;;;5049757;28;20120;-73
2022/08/27 06:16:52;;;;;;;6.63;3.05;;;13.60;99.90;;;;;;5050564;28;20385;-72
2022/08/27 06:19:18;;;;;;;7.80;3.10;;;13.70;99.90;;;;;;5051065;28;20047;-70
2022/08/27 06:21:44;;;;;;;11.43;4.15;;;13.70;99.90;;;;;;5050860;28;20509;-72
2022/08/27 06:24:11;;;;;;;5.18;3.38;;;13.80;99.90;;;;;;5031659;28;20053;-71
2022/08/27 06:26:38;;;;;;;8.98;3.50;;;13.90;99.90;;;;;;5031787;28;20694;-70
2022/08/27 06:29:06;;;;;;;8.30;3.15;;;14.10;99.90;;;;;;5050842;28;20064;-70
2022/08/27 06:31:36;;;;;;;5.40;3.10;;;14.10;99.90;;;;;;5060627;28;20144;-70
2022/08/27 06:34:03;;;;;;;8.88;3.70;;;14.20;99.90;;;;;;5071016;28;20055;-72
2022/08/27 06:36:29;;;;;;;6.25;3.13;;;14.30;99.90;;;;;;5089872;28;20039;-71
2022/08/27 06:38:55;;;;;;;6.38;3.10;;;14.60;99.90;;;;;;5074109;28;20040;-72
2022/08/27 06:41:25;;;;;;;8.65;3.45;;;14.50;99.90;;;;;;5053192;28;20041;-74
2022/08/27 06:43:52;;;;;;;6.40;2.70;;;14.60;99.90;;;;;;5088367;28;20039;-72
2022/08/27 06:46:20;;;;;;;13.23;3.30;;;14.80;99.90;;;;;;5073021;28;20064;-70
2022/08/27 06:48:48;;;;;;;5.85;2.45;;;14.90;99.90;;;;;;5054549;28;20138;-70
2022/08/27 06:51:17;;;;;;;10.27;3.22;;;15.00;99.90;;;;;;5070666;28;20483;-72
2022/08/27 06:53:45;;;;;;;9.45;3.00;;;15.20;99.90;;;;;;5073766;28;20514;-71
2022/08/27 06:56:12;;;;;;;5.28;3.00;;;15.40;99.90;;;;;;5074047;28;20041;-72
2022/08/27 06:58:39;;;;;;;7.70;2.70;;;15.40;99.90;;;;;;5073797;28;20055;-71
2022/08/27 07:01:13;;;;;;;11.55;3.17;;;15.50;99.90;;;;;;5075176;28;20044;-71
2022/08/27 07:03:39;;;;;;;8.02;3.20;;;15.70;99.90;;;;;;5066026;28;20044;-72
2022/08/27 07:06:06;;;;;;;8.23;2.35;;;15.80;99.90;;;;;;5065845;28;20101;-71
2022/08/27 07:08:32;;;;;;;5.25;2.28;;;15.90;99.90;;;;;;5093468;28;20510;-69
2022/08/27 07:10:59;;;;;;;8.82;2.78;;;16.10;99.90;;;;;;5073230;28;20416;-72
2022/08/27 07:13:26;;;;;;;8.10;2.17;;;16.30;99.90;;;;;;5053275;28;20084;-71
2022/08/27 07:15:51;;;;;;;10.85;2.38;;;16.40;99.90;;;;;;5053166;28;20132;-71
2022/08/27 07:18:17;;;;;;;9.57;1.90;;;16.50;99.90;;;;;;5053360;28;20119;-71
2022/08/27 07:20:43;;;;;;;7.95;1.85;;;16.60;99.90;;;;;;5054009;28;20436;-71
2022/08/27 07:23:09;;;;;;;7.32;1.70;;;16.70;99.90;;;;;;5053076;28;20044;-70
2022/08/27 07:25:35;;;;;;;8.93;1.85;;;16.90;99.90;;;;;;5053257;28;20107;-72
2022/08/27 07:28:01;;;;;;;11.52;2.10;;;17.00;99.90;;;;;;5034770;28;20053;-71
2022/08/27 07:30:27;;;;;;;7.30;1.60;;;17.10;99.90;;;;;;5055484;28;20220;-72
2022/08/27 07:32:53;;;;;;;8.38;2.00;;;17.20;99.90;;;;;;5083155;28;20047;-71
2022/08/27 07:35:18;;;;;;;11.57;1.90;;;17.40;99.90;;;;;;5075086;28;20054;-73
2022/08/27 07:37:44;;;;;;;6.95;1.50;;;17.40;99.90;;;;;;5082242;28;20486;-72
2022/08/27 07:40:12;;;;;;;7.43;1.55;;;17.60;99.90;;;;;;5074961;28;20047;-75
2022/08/27 07:45:24;;;;;;;11.82;1.38;;;17.90;99.90;;;;;;5092836;28;20048;-71
2022/08/27 07:47:50;;;;;;;4.68;1.45;;;18.00;99.90;;;;;;5065217;28;20037;-72
2022/08/27 07:50:17;;;;;;;7.90;1.20;;;18.00;99.90;;;;;;5052420;28;20119;-72
2022/08/27 07:52:42;;;;;;;7.20;1.50;;;18.10;99.90;;;;;;5051357;28;20060;-69
2022/08/27 07:55:10;;;;;;;6.30;1.60;;;18.20;99.90;;;;;;5060690;28;20044;-73
2022/08/27 07:57:37;;;;;;;7.32;1.48;;;18.30;99.90;;;;;;5056537;28;20041;-73
2022/08/27 08:00:04;;;;;;;6.78;1.30;;;18.40;99.90;;;;;;5034272;28;20053;-72
2022/08/27 08:02:30;;;;;;;7.28;1.48;;;18.50;99.90;;;;;;5060699;28;20128;-71
2022/08/27 08:04:56;;;;;;;7.85;1.35;;;18.60;99.90;;;;;;5069501;28;20066;-73
2022/08/27 08:07:21;;;;;;;4.32;1.17;;;18.70;99.90;;;;;;5037752;28;20055;-75
2022/08/27 08:09:47;;;;;;;6.15;1.00;;;18.90;99.90;;;;;;5052394;28;20036;-73
2022/08/27 08:12:13;;;;;;;7.60;1.35;;;18.90;99.90;;;;;;5052022;28;20045;-71
2022/08/27 08:14:39;;;;;;;8.57;1.30;;;19.00;99.90;;;;;;5035495;28;20041;-70
2022/08/27 08:17:05;;;;;;;3.65;0.90;;;19.10;99.90;;;;;;5051803;28;20510;-72
2022/08/27 08:19:32;;;;;;;7.93;1.08;;;19.10;99.90;;;;;;5051970;28;20033;-71
2022/08/27 08:21:58;;;;;;;6.15;1.10;;;19.10;99.90;;;;;;5033764;28;20088;-73
2022/08/27 08:24:24;;;;;;;5.03;1.08;;;19.20;99.90;;;;;;5051100;28;20037;-71
2022/08/27 08:26:50;;;;;;;11.63;1.25;;;19.20;99.90;;;;;;5064434;28;20051;-72
2022/08/27 08:29:15;;;;;;;4.88;1.05;;;19.20;99.90;;;;;;5064395;28;20503;-72
2022/08/27 08:31:42;;;;;;;9.55;1.23;;;19.30;99.90;;;;;;5051746;28;20447;-71
2022/08/27 08:34:08;;;;;;;6.05;1.30;;;19.40;99.90;;;;;;5051642;28;20045;-71
2022/08/27 08:36:33;;;;;;;10.77;1.20;;;19.40;99.90;;;;;;5051567;28;20045;-71
2022/08/27 08:38:59;;;;;;;6.68;0.90;;;19.40;99.90;;;;;;5051809;28;20455;-71
2022/08/27 08:41:49;;;;;;;6.75;0.90;;;19.40;99.90;;;;;;5051572;28;20670;-73
2022/08/27 08:44:41;;;;;;;5.65;1.00;;;19.50;99.90;;;;;;5051424;28;20555;-71
2022/08/27 08:47:20;;;;;;;10.77;1.20;;;19.60;99.90;;;;;;5051077;28;20365;-74
2022/08/27 08:50:13;;;;;;;4.57;0.98;;;19.60;99.90;;;;;;5064961;28;20064;-71
2022/08/27 08:52:55;;;;;;;7.30;1.33;;;19.70;99.90;;;;;;5071006;28;20121;-71
2022/08/27 08:55:23;;;;;;;8.02;1.40;;;20.00;99.90;;;;;;5070848;28;20044;-72
2022/08/27 08:58:08;;;;;;;7.20;1.35;;;19.90;99.90;;;;;;5066641;28;20037;-71
2022/08/27 09:00:35;;;;;;;10.45;1.52;;;19.90;99.90;;;;;;5069509;28;20059;-71
2022/08/27 09:03:01;;;;;;;5.97;1.08;;;20.30;99.90;;;;;;5087445;28;20041;-72
2022/08/27 09:05:27;;;;;;;4.53;1.00;;;20.30;99.90;;;;;;5052869;28;20411;-73
2022/08/27 09:08:04;;;;;;;7.60;1.38;;;20.30;99.90;;;;;;5070811;28;20048;-71
2022/08/27 09:11:09;;;;;;;7.10;1.10;;;20.40;99.90;;;;;;5060082;28;20084;-71
2022/08/27 09:13:48;;;;;;;5.97;1.20;;;20.30;99.90;;;;;;4958484;28;20111;-71
2022/08/27 09:16:14;;;;;;;5.03;1.00;;;20.30;99.90;;;;;;4940136;28;20046;-70
2022/08/27 09:18:41;;;;;;;8.48;1.55;;;20.30;99.90;;;;;;4968948;28;20065;-70
2022/08/27 09:21:24;;;;;;;13.43;1.70;;;20.30;99.90;;;;;;4961587;28;20054;-71
2022/08/27 09:24:01;;;;;;;7.80;1.35;;;20.30;99.90;;;;;;4950335;29;20051;-72
2022/08/27 09:26:30;;;;;;;8.40;1.20;;;20.30;99.90;;;;;;4955415;28;20525;-71
2022/08/27 09:31:47;;;;;;;8.02;1.27;;;20.30;99.90;;;;;;4952758;28;20094;-72
2022/08/27 09:34:14;;;;;;;7.43;1.70;;;20.30;99.90;;;;;;4949943;29;20245;-70
2022/08/27 09:37:19;;;;;;;7.05;1.38;;;20.30;99.90;;;;;;4949940;29;20055;-71
2022/08/27 09:39:47;;;;;;;8.32;1.15;;;20.20;99.90;;;;;;4935746;28;20069;-71
2022/08/27 09:42:35;;;;;;;7.88;1.40;;;20.30;99.90;;;;;;4968722;28;20133;-71
2022/08/27 09:45:01;;;;;;;11.63;1.45;;;20.30;99.90;;;;;;4969242;28;20291;-71
2022/08/27 09:47:27;;;;;;;7.63;1.50;;;20.50;99.90;;;;;;4969228;28;20062;-72
2022/08/27 09:50:08;;;;;;;7.47;1.85;;;20.50;99.90;;;;;;4994108;28;20049;-72
2022/08/27 09:52:45;;;;;;;9.23;1.27;;;20.50;99.90;;;;;;5032041;28;20057;-70
2022/08/27 09:55:10;;;;;;;7.95;0.75;;;20.60;99.90;;;;;;5050340;28;20056;-71
2022/08/27 09:57:41;;;;;;;7.55;1.25;;;20.60;99.90;;;;;;5049679;28;20044;-73
2022/08/27 10:00:13;;;;;;;8.65;1.30;;;20.60;99.90;;;;;;5049999;28;20052;-71
2022/08/27 10:02:49;;;;;;;5.18;0.95;;;20.60;99.90;;;;;;5049807;28;20094;-73
2022/08/27 10:05:28;;;;;;;8.55;1.05;;;20.60;99.90;;;;;;5050149;28;20140;-71
2022/08/27 10:08:00;;;;;;;8.77;1.10;;;20.70;99.90;;;;;;5049864;28;20115;-71
2022/08/27 10:10:38;;;;;;;5.68;1.00;;;21.20;99.90;;;;;;5031926;28;20098;-72
2022/08/27 10:13:09;;;;;;;7.38;1.08;;;21.60;99.90;;;;;;5049518;28;20057;-72
2022/08/27 10:15:57;;;;;;;8.80;1.30;;;21.80;99.90;;;;;;5049566;28;20072;-72
2022/08/27 10:18:43;;;;;;;9.45;1.40;;;21.70;99.90;;;;;;5070229;28;20129;-73
2022/08/27 10:21:19;;;;;;;7.55;1.95;;;21.90;99.90;;;;;;5066341;28;20128;-72
2022/08/27 10:24:01;;;;;;;9.68;0.80;;;22.00;99.90;;;;;;5069582;28;20090;-71
2022/08/27 10:26:51;;;;;;;8.65;0.90;;;22.20;99.90;;;;;;5031886;28;20132;-72
2022/08/27 10:29:48;;;;;;;5.75;1.10;;;22.60;99.90;;;;;;4988174;28;20058;-72
2022/08/27 10:32:50;;;;;;;5.70;1.02;;;22.80;99.90;;;;;;4996669;28;20054;-73
2022/08/27 10:35:23;;;;;;;5.68;1.17;;;23.10;99.90;;;;;;5006530;28;20061;-73
2022/08/27 10:37:58;;;;;;;7.63;1.00;;;23.40;99.90;;;;;;4987816;28;20099;-71
2022/08/27 10:40:33;;;;;;;5.97;1.50;;;23.30;99.90;;;;;;4993448;28;20050;-71
2022/08/27 10:43:31;;;;;;;8.88;1.00;;;23.70;99.90;;;;;;5004581;28;20072;-71
2022/08/27 10:46:18;;;;;;;5.80;1.05;;;23.60;99.90;;;;;;5005485;28;20046;-71
2022/08/27 10:49:22;;;;;;;6.53;1.10;;;23.50;99.90;;;;;;4986965;28;20054;-73
2022/08/27 10:51:52;;;;;;;5.75;1.13;;;23.60;99.90;;;;;;4948852;28;20430;-72
2022/08/27 10:54:35;;;;;;;6.60;1.08;;;24.00;99.90;;;;;;4967672;28;20141;-72
2022/08/27 10:57:25;;;;;;;5.53;1.35;;;24.30;99.90;;;;;;4966495;28;20070;-72
2022/08/27 11:00:12;;;;;;;6.80;1.05;;;24.70;99.90;;;;;;4967226;28;20141;-72
2022/08/27 11:02:47;;;;;;;5.40;1.17;;;25.00;99.90;;;;;;4967165;28;20550;-72
2022/08/27 11:05:16;;;;;;;;;;;25.00;99.90;;;;;;4967766;28;20086;-72
2022/08/27 11:08:13;;;;;;;9.80;1.30;;;24.70;98.10;;;;;;5025890;28;20319;-72
2022/08/27 11:10:53;;;;;;;6.90;1.10;;;24.50;99.60;;;;;;5009488;28;20049;-80
2022/08/27 11:13:30;;;;;;;17.30;3.85;;;24.20;99.30;;;;;;5002984;28;20115;-70
2022/08/27 11:15:56;;;;;;;9.35;2.25;;;24.10;99.50;;;;;;5006136;28;20155;-73
2022/08/27 11:18:32;;;;;;;26.02;8.30;;;24.10;99.40;;;;;;5006762;28;20209;-76
2022/08/27 11:21:28;;;;;;;8.82;1.05;;;23.90;99.30;;;;;;5006857;28;20555;-75
2022/08/27 11:24:01;;;;;;;7.93;1.05;;;24.00;98.70;;;;;;5007747;28;20375;-73
2022/08/27 11:26:30;;;;;;;13.18;2.28;;;24.00;98.60;;;;;;5007300;28;20567;-77
2022/08/27 11:29:00;;;;;;;6.70;1.27;;;23.80;99.10;;;;;;5037414;28;20555;-72
2022/08/27 11:31:47;;;;;;;13.20;3.63;;;23.90;99.00;;;;;;5052205;28;20504;-75
2022/08/27 11:34:29;;;;;;;81.32;24.30;;;24.30;98.40;;;;;;5053638;28;20124;-71
2022/08/27 11:37:06;;;;;;;35.08;10.50;;;24.40;98.30;;;;;;5052556;28;20099;-71
2022/08/27 11:39:56;;;;;;;20.67;6.43;;;24.40;98.30;;;;;;5052374;28;20055;-73
2022/08/27 11:42:50;;;;;;;7.78;1.15;;;24.30;98.80;;;;;;5052550;28;20142;-73
2022/08/27 11:45:23;;;;;;;5.30;0.88;;;24.20;97.90;;;;;;5035479;28;20052;-73
2022/08/27 11:47:57;;;;;;;6.70;1.25;;;24.00;98.20;;;;;;5051849;28;20052;-76
2022/08/27 11:50:24;;;;;;;;;;;24.30;98.30;;;;;;5052959;28;20099;-79
2022/08/27 11:53:05;;;;;;;3.80;0.70;;;24.40;98.40;;;;;;5052401;28;19920;-74
2022/08/27 11:55:35;;;;;;;4.50;1.00;;;24.20;98.10;;;;;;5053586;28;20037;-75
2022/08/27 11:58:22;;;;;;;9.07;1.00;;;24.30;99.00;;;;;;5052352;28;20045;-71
2022/08/27 12:00:48;;;;;;;7.05;1.67;;;24.50;98.90;;;;;;5052513;28;20106;-72
2022/08/27 12:03:30;;;;;;;7.20;1.33;;;24.60;99.10;;;;;;5059108;28;20492;-72
2022/08/27 12:05:55;;;;;;;7.15;0.80;;;24.40;98.10;;;;;;5070370;28;20483;-74
2022/08/27 12:08:21;;;;;;;6.72;1.08;;;24.30;98.60;;;;;;5053918;28;20055;-73
2022/08/27 12:11:01;;;;;;;7.85;1.30;;;24.00;98.80;;;;;;5072035;28;20560;-72
2022/08/27 12:13:39;;;;;;;7.88;0.73;;;24.00;98.30;;;;;;5071869;28;20152;-72
2022/08/27 12:16:22;;;;;;;6.70;0.80;;;23.90;98.70;;;;;;5054071;28;20102;-71
2022/08/27 12:18:58;;;;;;;9.05;1.27;;;23.90;98.00;;;;;;5071638;28;20873;-72
2022/08/27 12:21:48;;;;;;;8.15;0.90;;;24.00;98.60;;;;;;5071799;28;20499;-71
2022/08/27 12:24:49;;;;;;;5.65;0.90;;;24.20;98.30;;;;;;5053644;28;20059;-71
2022/08/27 12:27:20;;;;;;;7.40;1.30;;;24.00;98.20;;;;;;5009592;28;20053;-72
2022/08/27 12:30:18;;;;;;;3.53;0.60;;;23.90;97.80;;;;;;4993282;28;20073;-71
2022/08/27 12:32:47;;;;;;;8.63;1.00;;;24.10;98.20;;;;;;4990174;28;20474;-70
2022/08/27 12:35:52;;;;;;;10.15;0.70;;;24.40;98.60;;;;;;4989780;28;20450;-73
2022/08/27 12:38:31;;;;;;;8.95;1.25;;;24.60;98.00;;;;;;4931171;29;20068;-72
2022/08/27 12:41:02;;;;;;;4.68;0.65;;;24.70;98.30;;;;;;4932263;29;20408;-72
2022/08/27 12:43:32;;;;;;;7.45;0.80;;;24.60;97.90;;;;;;4932270;29;21016;-72
2022/08/27 12:46:14;;;;;;;5.20;1.08;;;24.80;97.70;;;;;;4932164;29;20545;-77
2022/08/27 12:48:45;;;;;;;4.65;0.93;;;25.00;97.20;;;;;;4931682;29;20795;-73
2022/08/27 12:51:32;;;;;;;7.32;1.13;;;25.10;97.30;;;;;;4931365;29;20126;-74
2022/08/27 12:54:37;;;;;;;4.20;0.95;;;25.10;95.90;;;;;;4931640;29;20059;-74
2022/08/27 12:57:26;;;;;;;8.70;1.00;;;25.00;95.10;;;;;;4915769;29;20067;-72
2022/08/27 13:00:18;;;;;;;6.63;0.98;;;25.20;96.30;;;;;;4931584;29;20484;-72
2022/08/27 13:03:11;;;;;;;5.20;0.73;;;25.10;94.90;;;;;;4950561;28;20622;-71
2022/08/27 13:05:40;;;;;;;6.32;0.77;;;24.90;94.80;;;;;;4949826;29;20043;-72
2022/08/27 13:08:28;;;;;;;6.38;0.95;;;24.70;95.70;;;;;;4951922;28;20067;-73
2022/08/27 13:10:55;;;;;;;6.63;0.98;;;24.90;95.40;;;;;;4969705;28;20134;-71
2022/08/27 13:13:23;;;;;;;4.18;0.70;;;25.10;95.50;;;;;;4995966;28;20078;-71
2022/08/27 13:15:55;;;;;;;5.65;0.75;;;25.10;94.70;;;;;;5070772;28;20384;-71
2022/08/27 13:18:22;;;;;;;4.22;0.80;;;25.30;95.30;;;;;;5070706;28;20059;-72
2022/08/27 13:20:49;;;;;;;3.95;0.80;;;25.40;95.20;;;;;;5070431;28;20044;-72